Tucson, AZ

5:24 AM MST on February 26, 2017 (GMT -0700)
Feldmans | | Change Station

Elev 2389 ft 32.24 °N, 110.97 °W | Updated 2 seconds ago

Overcast
Overcast
49.8 °F
Feels Like 50 °F
N
0.0
Wind Variable Wind from SSW
Gusts 0.0 mph

Today
High -- | Low -- °F
--% Chance of Precip.
Yesterday
High -- | Low -- °F
Precip. -- in
Pressure 29.83 in
Visibility 10.0 miles
Clouds Scattered Clouds 10000 ft
Windchill 50 °F
Dew Point 16 °F
Humidity 26%
Rainfall 0.00 in
Snow Depth Not available.
6:54 AM 6:19 PM
Waning Crescent, 0% visible
METAR KDMA 261158Z AUTO 14007KT 10SM SCT100 11/M08 A2990 RMK AO2 SLP102 T01061081 10106 20087 57013 CHINO RWY30 $
Pressure 29.83 in
Visibility 10.0 miles
Clouds Scattered Clouds 10000 ft
Windchill 50 °F
Dew Point 16 °F
Humidity 26%
Rainfall 0.00 in
Snow Depth Not available.
6:54 AM 6:19 PM
Waning Crescent, 0% visible
METAR KDMA 261158Z AUTO 14007KT 10SM SCT100 11/M08 A2990 RMK AO2 SLP102 T01061081 10106 20087 57013 CHINO RWY30 $

Get Your Daily Forecast Email!

Thanks for signing up!

Be on the lookout for a verification email in your inbox.

You'll start receiving the daily forecast at 8 AM.

×

10-Day Weather Forecast

Almanac

Astronomy

Feb. 26, 2017 Rise Set
Actual Time
Civil Twilight
Nautical Twilight
Astronomical Twilight
Moon
Length of Visible Light
Length of Day
Tomorrow will be .
, % of the Moon is Illuminated

Today's Extremes

State Highs State Lows

Community

WunderPhotos

Upload Photos

1,962,540 photos uploaded!

WunderBlog® & News

Nearby

Air Quality

  Air Quality AQ Index Pollutant
Not available.

Snow Depth

Station Depth Elevation

Earthquake Activity

City Distance Mag. Time & Date
Minimum magnitude displayed is 2.5.

Coastal Water Temperatures

Place Temperature

Stations

Nearby Weather Stations

Station Location Temp. Windchill Dew Point Humidity Wind Precip. Elev Updated Type
                   

Watches & Warnings

There are currently no watches in effect.